Terminal Aerodrome Forecast
Issued by NWS Charleston, WV

Home | Current Version | Previous Version | Text Only | Print | Product List | Glossary On
Versions: 1 2 3 4 5 6 7 8 9 10 11 12 13 14 15 16 17 18 19 20 21 22 23 24 25 26 27 28 29 30 31
000
FTUS41 KRLX 052337
TAFCRW
TAF
KCRW 052337Z 0600/0624 09005KT 6SM SHRA OVC022
     FM060100 10004KT 5SM BR VCSH OVC020
     FM060300 00000KT 4SM BR SCT015
     FM060800 00000KT 2SM BR OVC011
     FM061300 VRB03KT 3SM BR BKN010
     FM061400 VRB03KT 4SM SHRA BR OVC014
     FM061800 26005KT 6SM SHRA VCTS BKN024CB
     FM062000 25005KT P6SM VCTS BKN045CB
     FM062200 24004KT P6SM BKN040=

USA.gov is the U.S. government's official web portal to all federal, state and local government web resources and services.